sensor_id;sensor_type;location;lat;lon;timestamp;temperature;humidity
45619;DHT22;31343;47.520;19.144;2023-02-28T00:01:13;1.40;95.70
45619;DHT22;31343;47.520;19.144;2023-02-28T00:03:39;1.40;95.70
45619;DHT22;31343;47.520;19.144;2023-02-28T00:06:05;1.40;95.90
45619;DHT22;31343;47.520;19.144;2023-02-28T00:08:32;1.40;95.80
45619;DHT22;31343;47.520;19.144;2023-02-28T00:11:02;1.30;95.60
45619;DHT22;31343;47.520;19.144;2023-02-28T00:13:28;1.40;95.70
45619;DHT22;31343;47.520;19.144;2023-02-28T00:16:03;1.40;95.80
45619;DHT22;31343;47.520;19.144;2023-02-28T00:18:29;1.40;95.80
45619;DHT22;31343;47.520;19.144;2023-02-28T00:20:55;1.40;96.00
45619;DHT22;31343;47.520;19.144;2023-02-28T00:23:21;1.40;96.00
45619;DHT22;31343;47.520;19.144;2023-02-28T00:25:47;1.40;96.00
45619;DHT22;31343;47.520;19.144;2023-02-28T00:28:12;1.40;96.00
45619;DHT22;31343;47.520;19.144;2023-02-28T00:30:38;1.40;96.10
45619;DHT22;31343;47.520;19.144;2023-02-28T00:33:04;1.40;96.00
45619;DHT22;31343;47.520;19.144;2023-02-28T00:35:30;1.40;96.10
45619;DHT22;31343;47.520;19.144;2023-02-28T00:37:55;1.40;96.00
45619;DHT22;31343;47.520;19.144;2023-02-28T00:40:21;1.40;96.20
45619;DHT22;31343;47.520;19.144;2023-02-28T00:42:47;1.50;96.10
45619;DHT22;31343;47.520;19.144;2023-02-28T00:45:12;1.50;96.10
45619;DHT22;31343;47.520;19.144;2023-02-28T00:47:38;1.40;96.10
45619;DHT22;31343;47.520;19.144;2023-02-28T00:50:05;1.40;96.10
45619;DHT22;31343;47.520;19.144;2023-02-28T00:52:31;1.50;96.20
45619;DHT22;31343;47.520;19.144;2023-02-28T00:54:56;1.50;96.20
45619;DHT22;31343;47.520;19.144;2023-02-28T00:57:22;1.60;96.20
45619;DHT22;31343;47.520;19.144;2023-02-28T00:59:48;1.60;96.30
45619;DHT22;31343;47.520;19.144;2023-02-28T01:02:14;1.60;96.40
45619;DHT22;31343;47.520;19.144;2023-02-28T01:04:39;1.60;96.50
45619;DHT22;31343;47.520;19.144;2023-02-28T01:07:05;1.60;96.60
45619;DHT22;31343;47.520;19.144;2023-02-28T01:09:31;1.60;96.60
45619;DHT22;31343;47.520;19.144;2023-02-28T01:11:57;1.70;96.60
45619;DHT22;31343;47.520;19.144;2023-02-28T01:14:22;1.60;96.70
45619;DHT22;31343;47.520;19.144;2023-02-28T01:16:48;1.60;97.20
45619;DHT22;31343;47.520;19.144;2023-02-28T01:19:14;1.60;97.20
45619;DHT22;31343;47.520;19.144;2023-02-28T01:21:39;1.70;96.90
45619;DHT22;31343;47.520;19.144;2023-02-28T01:24:05;1.70;96.90
45619;DHT22;31343;47.520;19.144;2023-02-28T01:26:31;1.70;97.10
45619;DHT22;31343;47.520;19.144;2023-02-28T01:28:57;1.70;97.20
45619;DHT22;31343;47.520;19.144;2023-02-28T01:31:24;1.70;97.30
45619;DHT22;31343;47.520;19.144;2023-02-28T01:33:50;1.70;97.60
45619;DHT22;31343;47.520;19.144;2023-02-28T01:36:21;1.70;97.80
45619;DHT22;31343;47.520;19.144;2023-02-28T01:38:47;1.70;98.10
45619;DHT22;31343;47.520;19.144;2023-02-28T01:41:26;1.70;98.40
45619;DHT22;31343;47.520;19.144;2023-02-28T01:46:47;1.70;98.80
45619;DHT22;31343;47.520;19.144;2023-02-28T01:49:15;1.70;98.70
45619;DHT22;31343;47.520;19.144;2023-02-28T01:51:48;1.70;98.70
45619;DHT22;31343;47.520;19.144;2023-02-28T01:54:25;1.70;98.90
45619;DHT22;31343;47.520;19.144;2023-02-28T01:59:37;1.70;98.80
45619;DHT22;31343;47.520;19.144;2023-02-28T02:02:06;1.80;98.70
45619;DHT22;31343;47.520;19.144;2023-02-28T02:04:41;1.70;98.90
45619;DHT22;31343;47.520;19.144;2023-02-28T02:07:10;1.70;98.90
45619;DHT22;31343;47.520;19.144;2023-02-28T02:09:37;1.70;98.90
45619;DHT22;31343;47.520;19.144;2023-02-28T02:12:15;1.70;99.10
45619;DHT22;31343;47.520;19.144;2023-02-28T02:17:46;1.60;99.20
45619;DHT22;31343;47.520;19.144;2023-02-28T02:42:28;1.70;99.70
45619;DHT22;31343;47.520;19.144;2023-02-28T02:45:22;1.70;99.40
45619;DHT22;31343;47.520;19.144;2023-02-28T02:47:50;1.60;99.90
45619;DHT22;31343;47.520;19.144;2023-02-28T02:50:24;1.70;99.90
45619;DHT22;31343;47.520;19.144;2023-02-28T02:52:53;1.70;99.90
45619;DHT22;31343;47.520;19.144;2023-02-28T02:55:22;1.70;99.70
45619;DHT22;31343;47.520;19.144;2023-02-28T02:57:58;1.80;99.70
45619;DHT22;31343;47.520;19.144;2023-02-28T03:00:32;1.80;99.40
45619;DHT22;31343;47.520;19.144;2023-02-28T03:03:01;1.70;99.50
45619;DHT22;31343;47.520;19.144;2023-02-28T03:05:47;1.70;99.40
45619;DHT22;31343;47.520;19.144;2023-02-28T03:08:13;1.70;99.40
45619;DHT22;31343;47.520;19.144;2023-02-28T03:10:51;1.80;99.30
45619;DHT22;31343;47.520;19.144;2023-02-28T03:16:26;1.70;99.70
45619;DHT22;31343;47.520;19.144;2023-02-28T03:21:43;1.70;99.50
45619;DHT22;31343;47.520;19.144;2023-02-28T03:24:43;1.60;99.70
45619;DHT22;31343;47.520;19.144;2023-02-28T03:27:24;1.70;99.50
45619;DHT22;31343;47.520;19.144;2023-02-28T03:33:08;1.80;99.00
45619;DHT22;31343;47.520;19.144;2023-02-28T03:35:36;1.80;98.80
45619;DHT22;31343;47.520;19.144;2023-02-28T03:41:24;1.80;98.60
45619;DHT22;31343;47.520;19.144;2023-02-28T03:43:59;1.80;98.80
45619;DHT22;31343;47.520;19.144;2023-02-28T03:46:32;1.90;98.60
45619;DHT22;31343;47.520;19.144;2023-02-28T03:49:10;1.80;98.30
45619;DHT22;31343;47.520;19.144;2023-02-28T03:51:40;1.90;98.50
45619;DHT22;31343;47.520;19.144;2023-02-28T03:54:12;1.90;98.30
45619;DHT22;31343;47.520;19.144;2023-02-28T03:56:53;1.90;97.80
45619;DHT22;31343;47.520;19.144;2023-02-28T04:01:50;1.90;97.70
45619;DHT22;31343;47.520;19.144;2023-02-28T04:04:17;1.90;97.40
45619;DHT22;31343;47.520;19.144;2023-02-28T04:06:43;1.90;97.20
45619;DHT22;31343;47.520;19.144;2023-02-28T04:09:11;1.90;97.20
45619;DHT22;31343;47.520;19.144;2023-02-28T04:11:42;2.00;97.40
45619;DHT22;31343;47.520;19.144;2023-02-28T04:14:10;1.90;97.10
45619;DHT22;31343;47.520;19.144;2023-02-28T04:16:38;1.90;97.20
45619;DHT22;31343;47.520;19.144;2023-02-28T04:19:06;2.00;97.20
45619;DHT22;31343;47.520;19.144;2023-02-28T04:21:37;2.00;97.60
45619;DHT22;31343;47.520;19.144;2023-02-28T04:24:05;1.80;97.70
45619;DHT22;31343;47.520;19.144;2023-02-28T04:26:35;1.80;97.70
45619;DHT22;31343;47.520;19.144;2023-02-28T04:29:04;1.70;97.60
45619;DHT22;31343;47.520;19.144;2023-02-28T04:31:31;1.80;97.70
45619;DHT22;31343;47.520;19.144;2023-02-28T04:33:57;1.70;97.80
45619;DHT22;31343;47.520;19.144;2023-02-28T04:36:32;1.80;97.70
45619;DHT22;31343;47.520;19.144;2023-02-28T04:38:58;1.80;97.40
45619;DHT22;31343;47.520;19.144;2023-02-28T04:41:24;1.90;97.50
45619;DHT22;31343;47.520;19.144;2023-02-28T04:43:54;1.80;97.60
45619;DHT22;31343;47.520;19.144;2023-02-28T04:46:23;1.90;97.20
45619;DHT22;31343;47.520;19.144;2023-02-28T04:48:49;1.90;97.30
45619;DHT22;31343;47.520;19.144;2023-02-28T04:51:17;2.00;97.00
45619;DHT22;31343;47.520;19.144;2023-02-28T04:53:44;1.90;96.80
45619;DHT22;31343;47.520;19.144;2023-02-28T04:56:15;2.00;96.80
45619;DHT22;31343;47.520;19.144;2023-02-28T04:58:43;2.00;96.70
45619;DHT22;31343;47.520;19.144;2023-02-28T05:01:31;2.00;96.70
45619;DHT22;31343;47.520;19.144;2023-02-28T05:04:00;2.00;96.60
45619;DHT22;31343;47.520;19.144;2023-02-28T05:06:29;2.00;96.60
45619;DHT22;31343;47.520;19.144;2023-02-28T05:08:55;2.00;97.00
45619;DHT22;31343;47.520;19.144;2023-02-28T05:11:30;2.00;97.00
45619;DHT22;31343;47.520;19.144;2023-02-28T05:14:01;2.00;97.00
45619;DHT22;31343;47.520;19.144;2023-02-28T05:16:27;1.90;96.80
45619;DHT22;31343;47.520;19.144;2023-02-28T05:18:53;1.90;97.00
45619;DHT22;31343;47.520;19.144;2023-02-28T05:21:40;1.90;96.80
45619;DHT22;31343;47.520;19.144;2023-02-28T05:24:09;1.90;97.00
45619;DHT22;31343;47.520;19.144;2023-02-28T05:26:38;1.90;97.00
45619;DHT22;31343;47.520;19.144;2023-02-28T05:29:04;1.90;96.90
45619;DHT22;31343;47.520;19.144;2023-02-28T05:31:30;1.80;97.10
45619;DHT22;31343;47.520;19.144;2023-02-28T05:33:56;1.90;96.90
45619;DHT22;31343;47.520;19.144;2023-02-28T05:36:23;1.90;97.00
45619;DHT22;31343;47.520;19.144;2023-02-28T05:38:50;1.80;97.00
45619;DHT22;31343;47.520;19.144;2023-02-28T05:41:17;1.90;97.10
45619;DHT22;31343;47.520;19.144;2023-02-28T05:43:45;1.80;97.00
45619;DHT22;31343;47.520;19.144;2023-02-28T05:46:11;1.90;97.00
45619;DHT22;31343;47.520;19.144;2023-02-28T05:48:39;1.90;97.20
45619;DHT22;31343;47.520;19.144;2023-02-28T05:51:06;1.90;97.10
45619;DHT22;31343;47.520;19.144;2023-02-28T05:53:32;2.00;97.00
45619;DHT22;31343;47.520;19.144;2023-02-28T05:55:59;2.10;96.70
45619;DHT22;31343;47.520;19.144;2023-02-28T05:58:25;2.00;96.70
45619;DHT22;31343;47.520;19.144;2023-02-28T06:01:19;2.10;96.40
45619;DHT22;31343;47.520;19.144;2023-02-28T06:03:45;2.10;96.60
45619;DHT22;31343;47.520;19.144;2023-02-28T06:06:10;2.10;96.50
45619;DHT22;31343;47.520;19.144;2023-02-28T06:08:36;2.10;96.50
45619;DHT22;31343;47.520;19.144;2023-02-28T06:11:05;2.10;96.60
45619;DHT22;31343;47.520;19.144;2023-02-28T06:13:31;2.20;96.30
45619;DHT22;31343;47.520;19.144;2023-02-28T06:16:00;2.20;96.50
45619;DHT22;31343;47.520;19.144;2023-02-28T06:18:26;2.20;96.40
45619;DHT22;31343;47.520;19.144;2023-02-28T06:20:55;2.20;96.00
45619;DHT22;31343;47.520;19.144;2023-02-28T06:23:21;2.20;95.90
45619;DHT22;31343;47.520;19.144;2023-02-28T06:25:47;2.40;95.80
45619;DHT22;31343;47.520;19.144;2023-02-28T06:28:13;2.30;95.50
45619;DHT22;31343;47.520;19.144;2023-02-28T06:30:39;2.40;95.60
45619;DHT22;31343;47.520;19.144;2023-02-28T06:33:05;2.40;95.80
45619;DHT22;31343;47.520;19.144;2023-02-28T06:35:31;2.40;95.50
45619;DHT22;31343;47.520;19.144;2023-02-28T06:37:56;2.40;96.00
45619;DHT22;31343;47.520;19.144;2023-02-28T06:40:22;2.50;95.50
45619;DHT22;31343;47.520;19.144;2023-02-28T06:42:48;2.50;95.50
45619;DHT22;31343;47.520;19.144;2023-02-28T06:45:14;2.50;95.60
45619;DHT22;31343;47.520;19.144;2023-02-28T06:47:41;2.60;95.60
45619;DHT22;31343;47.520;19.144;2023-02-28T06:50:10;2.60;95.50
45619;DHT22;31343;47.520;19.144;2023-02-28T06:52:36;2.70;95.30
45619;DHT22;31343;47.520;19.144;2023-02-28T06:55:04;2.70;94.90
45619;DHT22;31343;47.520;19.144;2023-02-28T06:57:32;2.80;94.80
45619;DHT22;31343;47.520;19.144;2023-02-28T07:00:02;2.90;94.80
45619;DHT22;31343;47.520;19.144;2023-02-28T07:02:29;3.00;94.70
45619;DHT22;31343;47.520;19.144;2023-02-28T07:04:54;3.10;94.50
45619;DHT22;31343;47.520;19.144;2023-02-28T07:07:21;3.30;94.10
45619;DHT22;31343;47.520;19.144;2023-02-28T07:09:46;3.50;94.10
45619;DHT22;31343;47.520;19.144;2023-02-28T07:12:12;3.60;93.90
45619;DHT22;31343;47.520;19.144;2023-02-28T07:14:38;3.80;93.10
45619;DHT22;31343;47.520;19.144;2023-02-28T07:17:04;3.90;92.80
45619;DHT22;31343;47.520;19.144;2023-02-28T07:19:32;4.00;92.10
45619;DHT22;31343;47.520;19.144;2023-02-28T07:21:58;4.10;91.70
45619;DHT22;31343;47.520;19.144;2023-02-28T07:24:24;4.20;91.70
45619;DHT22;31343;47.520;19.144;2023-02-28T07:26:53;4.30;91.60
45619;DHT22;31343;47.520;19.144;2023-02-28T07:29:19;4.40;91.30
45619;DHT22;31343;47.520;19.144;2023-02-28T07:31:45;4.30;91.30
45619;DHT22;31343;47.520;19.144;2023-02-28T07:34:12;4.30;91.20
45619;DHT22;31343;47.520;19.144;2023-02-28T07:36:39;4.20;91.40
45619;DHT22;31343;47.520;19.144;2023-02-28T07:39:05;4.30;91.60
45619;DHT22;31343;47.520;19.144;2023-02-28T07:41:31;4.30;91.70
45619;DHT22;31343;47.520;19.144;2023-02-28T07:44:00;4.30;91.70
45619;DHT22;31343;47.520;19.144;2023-02-28T07:46:26;4.40;91.50
45619;DHT22;31343;47.520;19.144;2023-02-28T07:48:52;4.30;91.40
45619;DHT22;31343;47.520;19.144;2023-02-28T07:51:20;4.50;91.10
45619;DHT22;31343;47.520;19.144;2023-02-28T07:53:46;4.50;91.20
45619;DHT22;31343;47.520;19.144;2023-02-28T07:56:11;4.70;90.90
45619;DHT22;31343;47.520;19.144;2023-02-28T07:58:37;4.70;91.10
45619;DHT22;31343;47.520;19.144;2023-02-28T08:01:10;4.90;91.20
45619;DHT22;31343;47.520;19.144;2023-02-28T08:03:37;5.10;90.70
45619;DHT22;31343;47.520;19.144;2023-02-28T08:06:04;5.10;90.30
45619;DHT22;31343;47.520;19.144;2023-02-28T08:08:31;5.30;90.10
45619;DHT22;31343;47.520;19.144;2023-02-28T08:11:01;5.50;89.50
45619;DHT22;31343;47.520;19.144;2023-02-28T08:13:28;5.40;89.70
45619;DHT22;31343;47.520;19.144;2023-02-28T08:15:55;5.50;88.90
45619;DHT22;31343;47.520;19.144;2023-02-28T08:18:22;5.80;89.50
45619;DHT22;31343;47.520;19.144;2023-02-28T08:20:48;6.00;87.70
45619;DHT22;31343;47.520;19.144;2023-02-28T08:23:14;6.10;87.50
45619;DHT22;31343;47.520;19.144;2023-02-28T08:25:40;6.20;85.90
45619;DHT22;31343;47.520;19.144;2023-02-28T08:28:06;6.10;86.60
45619;DHT22;31343;47.520;19.144;2023-02-28T08:30:32;6.10;86.50
45619;DHT22;31343;47.520;19.144;2023-02-28T08:32:57;6.30;85.60
45619;DHT22;31343;47.520;19.144;2023-02-28T08:35:23;6.50;83.60
45619;DHT22;31343;47.520;19.144;2023-02-28T08:37:49;6.50;83.90
45619;DHT22;31343;47.520;19.144;2023-02-28T08:40:16;6.40;83.20
45619;DHT22;31343;47.520;19.144;2023-02-28T08:42:47;6.40;82.10
45619;DHT22;31343;47.520;19.144;2023-02-28T08:45:14;6.50;84.00
45619;DHT22;31343;47.520;19.144;2023-02-28T08:47:40;6.60;83.20
45619;DHT22;31343;47.520;19.144;2023-02-28T08:50:07;6.90;83.50
45619;DHT22;31343;47.520;19.144;2023-02-28T08:52:33;7.20;83.40
45619;DHT22;31343;47.520;19.144;2023-02-28T08:54:59;7.60;81.60
45619;DHT22;31343;47.520;19.144;2023-02-28T08:57:25;7.40;79.70
45619;DHT22;31343;47.520;19.144;2023-02-28T08:59:53;7.20;80.60
45619;DHT22;31343;47.520;19.144;2023-02-28T09:02:19;6.70;81.40
45619;DHT22;31343;47.520;19.144;2023-02-28T09:04:45;7.00;82.20
45619;DHT22;31343;47.520;19.144;2023-02-28T09:07:11;6.50;81.40
45619;DHT22;31343;47.520;19.144;2023-02-28T09:09:37;6.50;83.20
45619;DHT22;31343;47.520;19.144;2023-02-28T09:12:03;6.80;82.70
45619;DHT22;31343;47.520;19.144;2023-02-28T09:14:29;7.00;82.50
45619;DHT22;31343;47.520;19.144;2023-02-28T09:16:55;6.80;81.10
45619;DHT22;31343;47.520;19.144;2023-02-28T09:19:21;6.30;82.70
45619;DHT22;31343;47.520;19.144;2023-02-28T09:21:47;6.40;83.80
45619;DHT22;31343;47.520;19.144;2023-02-28T09:24:13;6.60;82.50
45619;DHT22;31343;47.520;19.144;2023-02-28T09:26:40;6.60;83.00
45619;DHT22;31343;47.520;19.144;2023-02-28T09:29:06;6.70;83.40
45619;DHT22;31343;47.520;19.144;2023-02-28T09:31:32;6.90;83.80
45619;DHT22;31343;47.520;19.144;2023-02-28T09:33:58;7.00;82.90
45619;DHT22;31343;47.520;19.144;2023-02-28T09:36:26;6.90;84.00
45619;DHT22;31343;47.520;19.144;2023-02-28T09:38:53;6.90;83.40
45619;DHT22;31343;47.520;19.144;2023-02-28T09:41:26;7.00;83.50
45619;DHT22;31343;47.520;19.144;2023-02-28T09:43:59;7.10;83.70
45619;DHT22;31343;47.520;19.144;2023-02-28T09:46:48;7.20;82.20
45619;DHT22;31343;47.520;19.144;2023-02-28T09:49:18;7.50;83.10
45619;DHT22;31343;47.520;19.144;2023-02-28T09:51:58;7.40;82.30
45619;DHT22;31343;47.520;19.144;2023-02-28T09:54:29;7.50;82.90
45619;DHT22;31343;47.520;19.144;2023-02-28T09:59:41;8.00;81.10
45619;DHT22;31343;47.520;19.144;2023-02-28T10:04:54;7.60;80.70
45619;DHT22;31343;47.520;19.144;2023-02-28T10:09:53;7.10;83.60
45619;DHT22;31343;47.520;19.144;2023-02-28T10:12:20;7.40;83.70
45619;DHT22;31343;47.520;19.144;2023-02-28T10:14:49;7.80;83.30
45619;DHT22;31343;47.520;19.144;2023-02-28T10:17:21;7.80;81.80
45619;DHT22;31343;47.520;19.144;2023-02-28T10:23:20;8.30;81.20
45619;DHT22;31343;47.520;19.144;2023-02-28T10:26:01;8.50;80.00
45619;DHT22;31343;47.520;19.144;2023-02-28T10:28:29;8.50;79.60
45619;DHT22;31343;47.520;19.144;2023-02-28T10:30:57;8.70;80.10
45619;DHT22;31343;47.520;19.144;2023-02-28T10:33:28;8.80;81.00
45619;DHT22;31343;47.520;19.144;2023-02-28T10:35:54;8.80;80.00
45619;DHT22;31343;47.520;19.144;2023-02-28T10:38:43;8.80;80.40
45619;DHT22;31343;47.520;19.144;2023-02-28T10:41:26;8.90;80.20
45619;DHT22;31343;47.520;19.144;2023-02-28T10:44:17;9.00;80.30
45619;DHT22;31343;47.520;19.144;2023-02-28T10:46:45;8.90;79.00
45619;DHT22;31343;47.520;19.144;2023-02-28T10:49:21;8.70;79.80
45619;DHT22;31343;47.520;19.144;2023-02-28T10:51:51;8.70;80.60
45619;DHT22;31343;47.520;19.144;2023-02-28T10:54:31;8.40;79.20
45619;DHT22;31343;47.520;19.144;2023-02-28T10:59:32;8.50;81.00
45619;DHT22;31343;47.520;19.144;2023-02-28T11:01:58;8.80;81.00
45619;DHT22;31343;47.520;19.144;2023-02-28T11:07:18;8.40;82.30
45619;DHT22;31343;47.520;19.144;2023-02-28T11:09:49;8.50;81.30
45619;DHT22;31343;47.520;19.144;2023-02-28T11:12:28;8.60;81.00
45619;DHT22;31343;47.520;19.144;2023-02-28T11:14:58;8.50;80.00
45619;DHT22;31343;47.520;19.144;2023-02-28T11:17:30;8.60;80.00
45619;DHT22;31343;47.520;19.144;2023-02-28T11:20:05;8.90;79.90
45619;DHT22;31343;47.520;19.144;2023-02-28T11:22:38;8.70;79.30
45619;DHT22;31343;47.520;19.144;2023-02-28T11:25:35;8.60;80.90
45619;DHT22;31343;47.520;19.144;2023-02-28T11:28:04;8.30;80.60
45619;DHT22;31343;47.520;19.144;2023-02-28T11:30:37;8.20;80.20
45619;DHT22;31343;47.520;19.144;2023-02-28T11:33:29;7.80;81.30
45619;DHT22;31343;47.520;19.144;2023-02-28T11:36:00;8.00;81.60
45619;DHT22;31343;47.520;19.144;2023-02-28T11:38:26;8.30;81.40
45619;DHT22;31343;47.520;19.144;2023-02-28T11:44:23;8.00;81.00
45619;DHT22;31343;47.520;19.144;2023-02-28T11:57:56;7.60;84.70
45619;DHT22;31343;47.520;19.144;2023-02-28T12:03:18;8.30;84.10
45619;DHT22;31343;47.520;19.144;2023-02-28T12:09:04;9.50;81.80
45619;DHT22;31343;47.520;19.144;2023-02-28T12:20:37;10.20;79.50
45619;DHT22;31343;47.520;19.144;2023-02-28T12:22:48;10.30;78.00
45619;DHT22;31343;47.520;19.144;2023-02-28T12:25:28;10.20;78.70
45619;DHT22;31343;47.520;19.144;2023-02-28T12:27:58;10.20;79.40
45619;DHT22;31343;47.520;19.144;2023-02-28T12:30:30;10.20;79.30
45619;DHT22;31343;47.520;19.144;2023-02-28T12:33:08;10.30;79.40
45619;DHT22;31343;47.520;19.144;2023-02-28T12:35:48;10.90;78.70
45619;DHT22;31343;47.520;19.144;2023-02-28T12:38:19;11.00;78.00
45619;DHT22;31343;47.520;19.144;2023-02-28T12:40:54;11.10;76.70
45619;DHT22;31343;47.520;19.144;2023-02-28T12:43:27;10.80;76.70
45619;DHT22;31343;47.520;19.144;2023-02-28T12:48:44;10.90;77.40
45619;DHT22;31343;47.520;19.144;2023-02-28T12:51:12;10.00;77.70
45619;DHT22;31343;47.520;19.144;2023-02-28T13:02:19;10.20;78.80
45619;DHT22;31343;47.520;19.144;2023-02-28T13:11:29;10.40;79.40
45619;DHT22;31343;47.520;19.144;2023-02-28T13:14:16;10.50;77.50
45619;DHT22;31343;47.520;19.144;2023-02-28T13:19:17;10.30;77.30
45619;DHT22;31343;47.520;19.144;2023-02-28T13:21:44;9.50;78.50
45619;DHT22;31343;47.520;19.144;2023-02-28T13:24:11;9.50;80.60
45619;DHT22;31343;47.520;19.144;2023-02-28T13:29:32;9.60;81.10
45619;DHT22;31343;47.520;19.144;2023-02-28T13:34:32;9.50;80.70
45619;DHT22;31343;47.520;19.144;2023-02-28T13:42:35;8.60;81.20
45619;DHT22;31343;47.520;19.144;2023-02-28T13:47:52;7.70;85.00
45619;DHT22;31343;47.520;19.144;2023-02-28T13:50:38;8.20;86.00
45619;DHT22;31343;47.520;19.144;2023-02-28T13:55:49;8.40;83.00
45619;DHT22;31343;47.520;19.144;2023-02-28T14:06:35;9.00;83.50
45619;DHT22;31343;47.520;19.144;2023-02-28T14:09:15;9.10;83.40
45619;DHT22;31343;47.520;19.144;2023-02-28T14:11:43;9.10;83.30
45619;DHT22;31343;47.520;19.144;2023-02-28T14:14:53;9.10;82.40
45619;DHT22;31343;47.520;19.144;2023-02-28T14:16:55;9.00;82.90
45619;DHT22;31343;47.520;19.144;2023-02-28T14:19:28;8.70;81.60
45619;DHT22;31343;47.520;19.144;2023-02-28T14:31:37;8.50;84.10
45619;DHT22;31343;47.520;19.144;2023-02-28T14:36:44;8.10;84.20
45619;DHT22;31343;47.520;19.144;2023-02-28T14:39:16;8.20;85.40
45619;DHT22;31343;47.520;19.144;2023-02-28T14:41:43;8.00;84.40
45619;DHT22;31343;47.520;19.144;2023-02-28T14:44:21;7.90;85.10
45619;DHT22;31343;47.520;19.144;2023-02-28T14:46:57;8.00;85.40
45619;DHT22;31343;47.520;19.144;2023-02-28T14:49:29;8.00;85.50
45619;DHT22;31343;47.520;19.144;2023-02-28T14:52:19;7.90;84.70
45619;DHT22;31343;47.520;19.144;2023-02-28T14:54:46;7.70;85.10
45619;DHT22;31343;47.520;19.144;2023-02-28T14:57:44;7.80;86.30
45619;DHT22;31343;47.520;19.144;2023-02-28T15:02:46;7.80;86.20
45619;DHT22;31343;47.520;19.144;2023-02-28T15:07:38;7.60;86.20
45619;DHT22;31343;47.520;19.144;2023-02-28T15:12:51;7.20;88.50
45619;DHT22;31343;47.520;19.144;2023-02-28T15:15:18;6.80;89.70
45619;DHT22;31343;47.520;19.144;2023-02-28T15:17:50;6.60;90.50
45619;DHT22;31343;47.520;19.144;2023-02-28T15:20:18;6.50;90.90
45619;DHT22;31343;47.520;19.144;2023-02-28T15:22:45;6.50;91.00
45619;DHT22;31343;47.520;19.144;2023-02-28T15:25:16;6.50;91.20
45619;DHT22;31343;47.520;19.144;2023-02-28T15:27:49;6.50;91.20
45619;DHT22;31343;47.520;19.144;2023-02-28T15:30:19;6.50;91.30
45619;DHT22;31343;47.520;19.144;2023-02-28T15:33:05;6.30;91.50
45619;DHT22;31343;47.520;19.144;2023-02-28T15:35:32;6.20;91.70
45619;DHT22;31343;47.520;19.144;2023-02-28T15:40:30;6.10;92.00
45619;DHT22;31343;47.520;19.144;2023-02-28T15:45:47;6.00;92.50
45619;DHT22;31343;47.520;19.144;2023-02-28T15:48:22;6.00;92.70
45619;DHT22;31343;47.520;19.144;2023-02-28T15:50:54;5.90;92.80
45619;DHT22;31343;47.520;19.144;2023-02-28T15:53:27;5.90;92.80
45619;DHT22;31343;47.520;19.144;2023-02-28T15:55:58;5.80;93.10
45619;DHT22;31343;47.520;19.144;2023-02-28T15:58:25;5.80;93.20
45619;DHT22;31343;47.520;19.144;2023-02-28T16:01:05;5.70;93.30
45619;DHT22;31343;47.520;19.144;2023-02-28T16:03:48;5.60;93.80
45619;DHT22;31343;47.520;19.144;2023-02-28T16:08:52;5.70;94.00
45619;DHT22;31343;47.520;19.144;2023-02-28T16:11:20;5.80;94.10
45619;DHT22;31343;47.520;19.144;2023-02-28T16:13:47;5.80;94.20
45619;DHT22;31343;47.520;19.144;2023-02-28T16:16:21;5.70;94.30
45619;DHT22;31343;47.520;19.144;2023-02-28T16:18:48;5.80;94.50
45619;DHT22;31343;47.520;19.144;2023-02-28T16:21:14;5.70;94.50
45619;DHT22;31343;47.520;19.144;2023-02-28T16:23:39;5.60;94.80
45619;DHT22;31343;47.520;19.144;2023-02-28T16:26:06;5.60;94.90
45619;DHT22;31343;47.520;19.144;2023-02-28T16:28:37;5.60;95.10
45619;DHT22;31343;47.520;19.144;2023-02-28T16:31:05;5.60;95.10
45619;DHT22;31343;47.520;19.144;2023-02-28T16:33:34;5.60;95.20
45619;DHT22;31343;47.520;19.144;2023-02-28T16:36:00;5.70;95.20
45619;DHT22;31343;47.520;19.144;2023-02-28T16:38:26;5.70;95.30
45619;DHT22;31343;47.520;19.144;2023-02-28T16:40:53;5.70;95.40
45619;DHT22;31343;47.520;19.144;2023-02-28T16:43:23;5.50;95.70
45619;DHT22;31343;47.520;19.144;2023-02-28T16:45:57;5.50;96.00
45619;DHT22;31343;47.520;19.144;2023-02-28T16:48:24;5.50;96.40
45619;DHT22;31343;47.520;19.144;2023-02-28T16:50:50;5.50;96.70
45619;DHT22;31343;47.520;19.144;2023-02-28T16:53:16;5.50;97.00
45619;DHT22;31343;47.520;19.144;2023-02-28T16:55:42;5.40;97.10
45619;DHT22;31343;47.520;19.144;2023-02-28T16:58:15;5.50;97.50
45619;DHT22;31343;47.520;19.144;2023-02-28T17:00:41;5.50;97.20
45619;DHT22;31343;47.520;19.144;2023-02-28T17:03:27;5.60;97.40
45619;DHT22;31343;47.520;19.144;2023-02-28T17:05:53;5.50;97.40
45619;DHT22;31343;47.520;19.144;2023-02-28T17:08:19;5.50;97.50
45619;DHT22;31343;47.520;19.144;2023-02-28T17:10:45;5.60;97.60
45619;DHT22;31343;47.520;19.144;2023-02-28T17:13:11;5.60;97.50
45619;DHT22;31343;47.520;19.144;2023-02-28T17:15:37;5.60;97.60
45619;DHT22;31343;47.520;19.144;2023-02-28T17:18:04;5.50;97.80
45619;DHT22;31343;47.520;19.144;2023-02-28T17:20:30;5.50;98.10
45619;DHT22;31343;47.520;19.144;2023-02-28T17:22:56;5.50;98.10
45619;DHT22;31343;47.520;19.144;2023-02-28T17:25:23;5.40;98.20
45619;DHT22;31343;47.520;19.144;2023-02-28T17:27:49;5.40;98.30
45619;DHT22;31343;47.520;19.144;2023-02-28T17:30:24;5.30;98.40
45619;DHT22;31343;47.520;19.144;2023-02-28T17:32:53;5.30;98.60
45619;DHT22;31343;47.520;19.144;2023-02-28T17:35:19;5.30;98.60
45619;DHT22;31343;47.520;19.144;2023-02-28T17:37:45;5.30;98.70
45619;DHT22;31343;47.520;19.144;2023-02-28T17:40:19;5.20;98.80
45619;DHT22;31343;47.520;19.144;2023-02-28T17:42:45;5.20;98.90
45619;DHT22;31343;47.520;19.144;2023-02-28T17:45:12;5.20;98.90
45619;DHT22;31343;47.520;19.144;2023-02-28T17:47:39;5.30;99.00
45619;DHT22;31343;47.520;19.144;2023-02-28T17:50:06;5.20;99.00
45619;DHT22;31343;47.520;19.144;2023-02-28T17:52:32;5.20;99.30
45619;DHT22;31343;47.520;19.144;2023-02-28T17:55:03;5.20;99.30
45619;DHT22;31343;47.520;19.144;2023-02-28T17:57:29;5.30;99.20
45619;DHT22;31343;47.520;19.144;2023-02-28T17:59:55;5.30;99.10
45619;DHT22;31343;47.520;19.144;2023-02-28T18:02:21;5.20;99.20
45619;DHT22;31343;47.520;19.144;2023-02-28T18:04:47;5.30;99.30
45619;DHT22;31343;47.520;19.144;2023-02-28T18:07:12;5.30;99.30
45619;DHT22;31343;47.520;19.144;2023-02-28T18:09:38;5.30;99.20
45619;DHT22;31343;47.520;19.144;2023-02-28T18:12:04;5.30;99.30
45619;DHT22;31343;47.520;19.144;2023-02-28T18:14:30;5.30;99.20
45619;DHT22;31343;47.520;19.144;2023-02-28T18:16:56;5.30;99.20
45619;DHT22;31343;47.520;19.144;2023-02-28T18:19:22;5.30;99.20
45619;DHT22;31343;47.520;19.144;2023-02-28T18:21:50;5.30;99.10
45619;DHT22;31343;47.520;19.144;2023-02-28T18:24:18;5.30;99.20
45619;DHT22;31343;47.520;19.144;2023-02-28T18:26:44;5.20;99.30
45619;DHT22;31343;47.520;19.144;2023-02-28T18:29:23;5.30;99.20